Time;durP1;ratioP1;P1;durP2;ratioP2;P2;SDS_P1;SDS_P2;PMS_P1;PMS_P2;Temp;Humidity;BMP_temperature;BMP_pressure;BME280_temperature;BME280_humidity;BME280_pressure;Samples;Min_cycle;Max_cycle;Signal;HPM_P1;HPM_P2
2021/04/15 00:00:21;;;;;;;3.60;0.73;;;4.10;99.90;;;;;;5029789;28;20079;-83
2021/04/15 00:02:47;;;;;;;3.65;1.02;;;4.10;99.90;;;;;;5010103;28;20030;-83
2021/04/15 00:05:21;;;;;;;3.50;0.63;;;4.00;99.90;;;;;;5010072;28;20499;-83
2021/04/15 00:07:47;;;;;;;2.88;0.80;;;4.00;99.90;;;;;;5007533;28;20033;-84
2021/04/15 00:10:13;;;;;;;2.92;0.80;;;4.00;99.90;;;;;;5031536;28;20120;-84
2021/04/15 00:12:41;;;;;;;1.77;0.60;;;4.00;99.90;;;;;;5031519;28;20041;-82
2021/04/15 00:15:10;;;;;;;3.22;0.80;;;4.10;99.90;;;;;;5023518;28;20060;-83
2021/04/15 00:17:36;;;;;;;1.95;0.85;;;4.10;99.90;;;;;;5010851;28;20130;-83
2021/04/15 00:20:04;;;;;;;5.10;1.08;;;4.10;99.90;;;;;;5016800;28;20136;-83
2021/04/15 00:22:30;;;;;;;1.55;0.70;;;4.10;99.90;;;;;;5013653;28;20018;-84
2021/04/15 00:24:58;;;;;;;2.67;0.80;;;4.10;99.90;;;;;;5028180;28;20029;-83
2021/04/15 00:27:24;;;;;;;4.43;1.10;;;4.10;99.90;;;;;;5030824;28;20108;-83
2021/04/15 00:29:49;;;;;;;3.92;1.27;;;4.10;99.90;;;;;;5020209;28;20116;-84
2021/04/15 00:32:15;;;;;;;3.42;0.90;;;4.10;99.90;;;;;;5012631;28;20505;-83
2021/04/15 00:34:41;;;;;;;1.73;0.80;;;4.20;99.90;;;;;;5030794;28;20037;-84
2021/04/15 00:37:06;;;;;;;2.22;0.70;;;4.20;99.90;;;;;;5030344;28;20022;-83
2021/04/15 00:39:32;;;;;;;2.55;0.70;;;4.20;99.90;;;;;;5016251;28;20025;-82
2021/04/15 00:41:58;;;;;;;1.98;0.73;;;4.20;99.90;;;;;;5013466;28;20217;-83
2021/04/15 00:44:25;;;;;;;2.25;0.85;;;4.20;99.90;;;;;;5029189;28;20029;-82
2021/04/15 00:46:53;;;;;;;2.80;1.05;;;4.20;99.90;;;;;;5012147;28;20079;-83
2021/04/15 00:49:31;;;;;;;2.17;0.70;;;4.20;99.90;;;;;;5013936;28;20029;-83
2021/04/15 00:52:15;;;;;;;2.80;0.68;;;4.20;99.90;;;;;;5014056;28;20116;-83
2021/04/15 00:54:58;;;;;;;3.85;1.27;;;4.10;99.90;;;;;;5014096;28;20026;-83
2021/04/15 00:57:34;;;;;;;1.60;0.40;;;4.20;99.90;;;;;;5014051;28;20118;-83
2021/04/15 01:00:00;;;;;;;2.40;0.50;;;4.20;99.90;;;;;;5013736;28;20469;-83
2021/04/15 01:02:29;;;;;;;0.90;0.50;;;4.20;99.90;;;;;;5013768;28;20116;-83
2021/04/15 01:05:00;;;;;;;0.77;0.50;;;4.10;99.90;;;;;;5013864;28;20037;-84
2021/04/15 01:07:27;;;;;;;1.42;0.45;;;4.10;99.90;;;;;;5013824;28;20105;-83
2021/04/15 01:09:54;;;;;;;1.52;0.50;;;4.00;99.90;;;;;;5012896;28;20021;-83
2021/04/15 01:12:54;;;;;;;0.63;0.38;;;4.00;99.90;;;;;;5030201;28;20169;-83
2021/04/15 01:15:35;;;;;;;0.95;0.40;;;4.00;99.90;;;;;;5013714;28;20122;-83
2021/04/15 01:18:09;;;;;;;0.93;0.40;;;4.00;99.90;;;;;;5013232;28;20029;-83
2021/04/15 01:20:44;;;;;;;2.63;0.50;;;4.00;99.90;;;;;;5018232;28;20072;-82
2021/04/15 01:23:39;;;;;;;0.70;0.40;;;4.00;99.90;;;;;;5012221;28;20485;-82
2021/04/15 01:26:17;;;;;;;1.25;0.40;;;3.90;99.90;;;;;;4989561;28;20042;-84
2021/04/15 01:28:57;;;;;;;1.75;0.95;;;3.90;99.90;;;;;;5011880;28;20378;-84
2021/04/15 01:31:52;;;;;;;0.60;0.30;;;3.90;99.90;;;;;;5033461;28;20036;-84
2021/04/15 01:34:36;;;;;;;2.05;0.40;;;3.90;99.90;;;;;;5011561;28;20046;-83
2021/04/15 01:37:09;;;;;;;0.30;0.30;;;3.90;99.90;;;;;;5013459;28;20106;-83
2021/04/15 01:39:44;;;;;;;0.35;0.30;;;3.90;99.90;;;;;;5012191;28;20080;-83
2021/04/15 01:42:17;;;;;;;0.80;0.43;;;3.90;99.90;;;;;;5025625;28;20433;-83
2021/04/15 01:44:57;;;;;;;0.70;0.30;;;3.90;99.90;;;;;;5032915;28;20466;-83
2021/04/15 01:47:39;;;;;;;1.15;0.30;;;3.80;99.90;;;;;;5035716;28;20533;-82
2021/04/15 01:50:23;;;;;;;1.30;0.30;;;3.70;99.90;;;;;;5035084;28;20033;-83
2021/04/15 01:52:56;;;;;;;;;;;3.70;99.90;;;;;;5036709;28;20478;-82
2021/04/15 01:55:39;;;;;;;1.08;0.40;;;3.60;99.90;;;;;;5036698;28;19905;-82
2021/04/15 01:58:15;;;;;;;0.30;0.20;;;3.60;99.90;;;;;;5035535;28;20531;-82
2021/04/15 02:00:45;;;;;;;0.25;0.20;;;3.60;99.90;;;;;;5035076;28;20036;-82
2021/04/15 02:03:18;;;;;;;1.02;0.30;;;3.60;99.90;;;;;;5034892;28;20141;-83
2021/04/15 02:05:46;;;;;;;1.00;0.40;;;3.60;99.90;;;;;;5035097;28;20478;-83
2021/04/15 02:08:24;;;;;;;1.05;0.30;;;3.60;99.90;;;;;;5035017;28;20029;-83
2021/04/15 02:10:59;;;;;;;1.10;0.30;;;3.60;99.90;;;;;;5034948;28;20026;-82
2021/04/15 02:13:26;;;;;;;0.43;0.30;;;3.60;99.90;;;;;;5034926;28;20388;-82
2021/04/15 02:16:04;;;;;;;0.80;0.30;;;3.70;99.90;;;;;;5036795;28;20369;-83
2021/04/15 02:18:40;;;;;;;0.90;0.30;;;3.60;99.90;;;;;;5039319;28;20037;-83
2021/04/15 02:21:24;;;;;;;3.42;0.40;;;3.70;99.90;;;;;;5033404;28;20117;-81
2021/04/15 02:23:54;;;;;;;;;;;3.70;99.90;;;;;;5047192;28;20021;-82
2021/04/15 02:26:33;;;;;;;0.43;0.30;;;3.70;99.90;;;;;;5054557;28;19909;-83
2021/04/15 02:29:11;;;;;;;0.20;0.20;;;3.70;99.90;;;;;;5056353;28;20469;-81
2021/04/15 02:31:42;;;;;;;0.95;0.20;;;3.70;99.90;;;;;;5054899;28;20036;-81
2021/04/15 02:34:28;;;;;;;0.43;0.30;;;3.80;99.90;;;;;;5055310;28;20021;-81
2021/04/15 02:37:05;;;;;;;0.22;0.20;;;3.80;99.90;;;;;;5055069;28;20028;-82
2021/04/15 02:39:36;;;;;;;0.75;0.50;;;3.90;99.90;;;;;;5054482;28;20546;-81
2021/04/15 02:42:08;;;;;;;0.40;0.30;;;3.90;99.90;;;;;;5055596;28;20044;-82
2021/04/15 02:44:48;;;;;;;0.47;0.20;;;3.90;99.90;;;;;;5053575;28;20444;-83
2021/04/15 02:47:20;;;;;;;1.48;0.40;;;3.90;99.90;;;;;;5055960;28;20048;-82
2021/04/15 02:49:47;;;;;;;0.70;0.40;;;3.90;99.90;;;;;;5054477;28;20021;-82
2021/04/15 02:52:25;;;;;;;0.70;0.30;;;3.90;99.90;;;;;;5059108;28;20058;-82
2021/04/15 02:54:55;;;;;;;0.55;0.30;;;3.90;99.90;;;;;;5063893;28;20120;-82
2021/04/15 02:57:28;;;;;;;0.98;0.30;;;3.90;99.90;;;;;;5061591;28;20032;-82
2021/04/15 03:00:07;;;;;;;1.48;0.30;;;3.90;99.90;;;;;;5055745;28;20025;-82
2021/04/15 03:02:43;;;;;;;1.05;0.38;;;3.90;99.90;;;;;;5055184;28;20036;-82
2021/04/15 03:05:24;;;;;;;0.82;0.40;;;3.90;99.90;;;;;;5054476;28;20021;-83
2021/04/15 03:07:53;;;;;;;1.77;0.50;;;3.90;99.90;;;;;;5054214;28;20086;-82
2021/04/15 03:10:25;;;;;;;2.05;0.60;;;3.90;99.90;;;;;;5055256;28;20031;-82
2021/04/15 03:13:03;;;;;;;1.95;0.65;;;3.80;99.90;;;;;;5054848;28;20032;-82
2021/04/15 03:15:33;;;;;;;0.85;0.50;;;3.80;99.90;;;;;;5053914;28;20037;-82
2021/04/15 03:18:08;;;;;;;2.00;0.45;;;3.80;99.90;;;;;;5053723;28;20074;-82
2021/04/15 03:20:49;;;;;;;2.40;0.60;;;3.80;99.90;;;;;;5053833;28;20465;-82
2021/04/15 03:23:23;;;;;;;1.13;0.63;;;3.70;99.90;;;;;;5053796;28;20060;-82
2021/04/15 03:25:53;;;;;;;1.35;0.40;;;3.70;99.90;;;;;;5053501;28;20025;-82
2021/04/15 03:28:44;;;;;;;0.50;0.40;;;3.70;99.90;;;;;;5053924;28;20510;-82
2021/04/15 03:31:20;;;;;;;0.77;0.40;;;3.80;99.90;;;;;;5053689;28;20028;-82
2021/04/15 03:33:55;;;;;;;1.10;0.50;;;3.80;99.90;;;;;;5054758;28;20037;-82
2021/04/15 03:36:31;;;;;;;1.77;0.40;;;3.80;99.90;;;;;;5053478;28;20029;-82
2021/04/15 03:39:02;;;;;;;2.05;0.45;;;3.70;99.90;;;;;;5053368;28;20020;-82
2021/04/15 03:41:37;;;;;;;0.65;0.40;;;3.60;99.90;;;;;;5054442;28;20447;-82
2021/04/15 03:44:23;;;;;;;1.05;0.55;;;3.50;99.90;;;;;;5052868;28;20029;-83
2021/04/15 03:47:04;;;;;;;1.48;0.60;;;3.50;99.90;;;;;;5053221;28;20029;-83
2021/04/15 03:50:00;;;;;;;2.05;0.55;;;3.30;99.90;;;;;;5053265;28;20025;-82
2021/04/15 03:52:45;;;;;;;1.70;0.60;;;3.20;99.90;;;;;;5053186;28;20059;-82
2021/04/15 03:55:33;;;;;;;1.48;0.45;;;3.20;99.90;;;;;;5054390;28;20029;-83
2021/04/15 03:58:08;;;;;;;0.85;0.35;;;3.00;99.90;;;;;;5053012;28;20067;-83
2021/04/15 04:00:47;;;;;;;0.93;0.47;;;3.00;99.90;;;;;;5054121;28;20029;-83
2021/04/15 04:03:20;;;;;;;0.82;0.40;;;2.90;99.90;;;;;;5052971;28;20116;-83
2021/04/15 04:05:58;;;;;;;2.53;0.60;;;2.90;99.90;;;;;;5052924;28;20067;-82
2021/04/15 04:08:36;;;;;;;1.88;0.68;;;2.80;99.90;;;;;;5052568;28;20094;-83
2021/04/15 04:11:04;;;;;;;1.85;0.68;;;2.80;99.90;;;;;;5052706;28;20067;-82
2021/04/15 04:13:48;;;;;;;1.65;0.60;;;2.80;99.90;;;;;;5052756;28;20453;-83
2021/04/15 04:16:36;;;;;;;1.40;0.60;;;2.80;99.90;;;;;;5052962;28;20116;-82
2021/04/15 04:19:14;;;;;;;1.90;0.82;;;2.80;99.90;;;;;;5052966;28;20029;-82
2021/04/15 04:21:45;;;;;;;1.60;0.60;;;2.80;99.90;;;;;;5053941;28;20045;-83
2021/04/15 04:24:36;;;;;;;1.60;0.90;;;2.80;99.90;;;;;;5052262;28;20124;-82
2021/04/15 04:27:35;;;;;;;0.85;0.60;;;2.80;99.90;;;;;;5052440;28;20472;-82
2021/04/15 04:30:12;;;;;;;1.33;0.57;;;2.80;99.90;;;;;;5039585;28;20033;-83
2021/04/15 04:32:41;;;;;;;1.00;0.60;;;2.80;99.90;;;;;;5053214;28;20032;-84
2021/04/15 04:35:13;;;;;;;0.82;0.60;;;2.70;99.90;;;;;;5054682;28;20028;-83
2021/04/15 04:37:46;;;;;;;1.30;0.63;;;2.70;99.90;;;;;;5054616;28;20060;-83
2021/04/15 04:40:19;;;;;;;1.80;0.80;;;2.60;99.90;;;;;;5026205;28;20027;-83
2021/04/15 04:42:54;;;;;;;1.30;0.60;;;2.60;99.90;;;;;;5030701;28;20025;-83
2021/04/15 04:45:23;;;;;;;1.50;0.70;;;2.50;99.90;;;;;;5032503;28;20456;-83
2021/04/15 04:48:05;;;;;;;1.15;0.60;;;2.50;99.90;;;;;;5031032;28;20113;-83
2021/04/15 04:50:34;;;;;;;1.67;0.50;;;2.50;99.90;;;;;;5024546;28;20034;-83
2021/04/15 04:53:07;;;;;;;0.98;0.60;;;2.50;99.90;;;;;;5036883;28;20151;-84
2021/04/15 04:55:47;;;;;;;1.67;0.82;;;2.50;99.90;;;;;;5032442;28;20489;-85
2021/04/15 04:58:19;;;;;;;1.48;0.77;;;2.50;99.90;;;;;;5033087;28;20084;-83
2021/04/15 05:00:57;;;;;;;2.97;0.73;;;2.50;99.90;;;;;;5034403;28;20029;-83
2021/04/15 05:03:27;;;;;;;1.73;0.70;;;2.50;99.90;;;;;;5031634;28;20343;-83
2021/04/15 05:06:24;;;;;;;1.30;0.77;;;2.50;99.90;;;;;;5031326;28;20084;-83
2021/04/15 05:08:53;;;;;;;1.33;0.70;;;2.60;99.90;;;;;;5031070;28;20026;-82
2021/04/15 05:11:31;;;;;;;1.65;0.82;;;2.70;99.90;;;;;;5030987;28;20032;-84
2021/04/15 05:13:59;;;;;;;2.80;1.23;;;2.80;99.90;;;;;;5026789;28;20052;-83
2021/04/15 05:16:33;;;;;;;1.27;0.85;;;2.80;99.90;;;;;;5030959;28;20099;-83
2021/04/15 05:19:07;;;;;;;2.13;1.00;;;2.90;99.90;;;;;;5032121;28;20030;-84
2021/04/15 05:21:35;;;;;;;1.70;0.95;;;2.90;99.90;;;;;;5018742;28;20073;-84
2021/04/15 05:24:34;;;;;;;1.88;0.80;;;3.00;99.90;;;;;;5019560;28;20095;-83
2021/04/15 05:27:03;;;;;;;1.50;0.95;;;3.00;99.90;;;;;;5032367;28;20057;-83
2021/04/15 05:29:39;;;;;;;2.00;1.20;;;3.10;99.90;;;;;;5029395;28;20144;-83
2021/04/15 05:32:06;;;;;;;1.90;1.00;;;3.10;99.90;;;;;;5029690;28;20075;-83
2021/04/15 05:34:46;;;;;;;2.08;1.20;;;3.10;99.90;;;;;;5034790;28;20474;-83
2021/04/15 05:37:21;;;;;;;3.25;1.42;;;3.10;99.90;;;;;;5020474;28;20029;-83
2021/04/15 05:39:49;;;;;;;2.45;1.20;;;3.10;99.90;;;;;;5034881;28;20124;-83
2021/04/15 05:42:21;;;;;;;2.78;1.10;;;3.10;99.90;;;;;;5034905;28;20017;-83
2021/04/15 05:44:53;;;;;;;3.17;1.40;;;3.00;99.90;;;;;;5035056;28;20032;-82
2021/04/15 05:47:25;;;;;;;5.03;1.70;;;3.10;99.90;;;;;;5035073;28;20036;-83
2021/04/15 05:50:29;;;;;;;2.85;1.58;;;3.00;99.90;;;;;;5022795;28;20103;-83
2021/04/15 05:53:07;;;;;;;3.58;1.63;;;3.00;99.90;;;;;;5002380;28;20140;-83
2021/04/15 05:55:39;;;;;;;4.15;1.63;;;3.00;99.90;;;;;;5034564;28;20034;-83
2021/04/15 05:58:24;;;;;;;3.50;1.42;;;3.00;99.90;;;;;;5034773;28;20052;-83
2021/04/15 06:01:09;;;;;;;4.47;1.83;;;3.10;99.90;;;;;;5034363;28;20022;-84
2021/04/15 06:03:51;;;;;;;3.60;1.90;;;3.10;99.90;;;;;;5034291;28;20052;-85
2021/04/15 06:06:21;;;;;;;3.45;1.52;;;3.20;99.90;;;;;;5034290;28;20017;-84
2021/04/15 06:08:50;;;;;;;3.95;1.90;;;3.20;99.90;;;;;;5034377;28;20040;-83
2021/04/15 06:11:53;;;;;;;3.78;1.92;;;3.20;99.90;;;;;;5035047;28;20025;-83
2021/04/15 06:14:25;;;;;;;3.20;1.70;;;3.30;99.90;;;;;;5034666;28;20018;-82
2021/04/15 06:17:33;;;;;;;3.08;1.80;;;3.40;99.90;;;;;;5035459;28;20039;-82
2021/04/15 06:20:14;;;;;;;4.72;2.38;;;3.40;99.90;;;;;;5032365;28;20045;-83
2021/04/15 06:22:45;;;;;;;5.28;2.20;;;3.40;99.90;;;;;;5037676;28;20021;-83
2021/04/15 06:25:28;;;;;;;3.63;1.52;;;3.40;99.90;;;;;;5035784;28;20045;-82
2021/04/15 06:28:00;;;;;;;4.13;1.80;;;3.50;99.90;;;;;;5018985;28;20033;-83
2021/04/15 06:30:38;;;;;;;4.72;1.90;;;3.50;99.90;;;;;;5033954;28;20256;-83
2021/04/15 06:33:11;;;;;;;3.35;1.88;;;3.60;99.90;;;;;;5034716;28;20115;-83
2021/04/15 06:35:38;;;;;;;4.70;1.67;;;3.70;99.90;;;;;;5034275;28;20184;-83
2021/04/15 06:38:13;;;;;;;4.07;2.15;;;3.80;99.90;;;;;;5034444;28;20545;-84
2021/04/15 06:41:20;;;;;;;2.92;1.88;;;4.00;99.90;;;;;;5024294;28;20022;-84
2021/04/15 06:44:07;;;;;;;4.22;2.03;;;4.30;99.90;;;;;;5032195;28;20029;-84
2021/04/15 06:47:14;;;;;;;6.35;2.38;;;4.50;99.90;;;;;;5034192;28;20038;-86
2021/04/15 06:49:52;;;;;;;3.22;1.88;;;4.70;99.90;;;;;;5035138;28;20095;-85
2021/04/15 06:52:24;;;;;;;6.28;2.05;;;4.80;99.90;;;;;;5031703;28;20465;-85
2021/04/15 06:55:29;;;;;;;4.88;2.10;;;4.90;99.90;;;;;;5034997;28;20037;-85
2021/04/15 06:57:55;;;;;;;5.70;2.40;;;4.90;99.90;;;;;;5017958;28;20029;-84
2021/04/15 07:00:33;;;;;;;4.43;2.35;;;5.00;99.90;;;;;;5033466;28;20397;-85
2021/04/15 07:03:50;;;;;;;5.40;2.90;;;5.10;99.90;;;;;;5036430;28;20036;-83
2021/04/15 07:06:20;;;;;;;6.22;2.50;;;5.10;99.90;;;;;;4999013;28;20041;-84
2021/04/15 07:09:28;;;;;;;4.25;2.55;;;5.00;99.90;;;;;;5027488;28;20033;-83
2021/04/15 07:12:15;;;;;;;5.80;2.42;;;4.90;99.90;;;;;;4978290;28;20034;-84
2021/04/15 07:15:32;;;;;;;6.75;2.63;;;4.90;99.90;;;;;;4961058;28;20035;-84
2021/04/15 07:18:35;;;;;;;6.63;2.55;;;4.80;99.90;;;;;;5024501;28;20029;-85
2021/04/15 07:21:16;;;;;;;6.15;2.67;;;4.80;99.90;;;;;;5020677;28;20058;-84
2021/04/15 07:24:10;;;;;;;5.43;2.60;;;4.90;99.90;;;;;;5029442;28;20037;-84
2021/04/15 07:27:03;;;;;;;4.90;2.53;;;5.00;99.90;;;;;;5033198;28;20029;-83
2021/04/15 07:29:36;;;;;;;5.10;2.38;;;5.10;99.90;;;;;;5034950;28;20033;-85
2021/04/15 07:32:10;;;;;;;7.38;1.98;;;5.20;99.90;;;;;;5040276;28;20028;-84
2021/04/15 07:35:01;;;;;;;5.03;2.42;;;5.30;99.90;;;;;;5033196;28;20396;-83
2021/04/15 07:37:51;;;;;;;5.15;2.40;;;5.40;99.90;;;;;;5036461;28;20040;-84
2021/04/15 07:40:37;;;;;;;4.25;2.17;;;5.50;99.90;;;;;;5034715;28;20026;-83
2021/04/15 07:43:27;;;;;;;5.63;2.05;;;5.60;99.90;;;;;;5034019;28;20051;-83
2021/04/15 07:46:22;;;;;;;5.43;1.80;;;5.70;99.90;;;;;;5014960;28;20386;-83
2021/04/15 07:49:12;;;;;;;4.35;1.63;;;5.90;99.90;;;;;;5025904;28;20040;-86
2021/04/15 07:52:14;;;;;;;5.43;1.67;;;5.90;99.90;;;;;;5035032;28;20443;-85
2021/04/15 07:54:59;;;;;;;2.20;1.50;;;6.10;99.90;;;;;;5023350;28;20113;-85
2021/04/15 07:57:56;;;;;;;3.90;1.42;;;6.10;99.90;;;;;;5032720;28;20026;-85
2021/04/15 08:00:53;;;;;;;3.33;1.83;;;6.20;99.90;;;;;;5014933;28;20041;-84
2021/04/15 08:03:22;;;;;;;4.47;1.50;;;6.20;99.90;;;;;;5033791;28;20033;-85
2021/04/15 08:06:05;;;;;;;4.88;1.30;;;6.20;99.90;;;;;;5032902;28;20065;-85
2021/04/15 08:08:52;;;;;;;2.05;1.02;;;6.40;99.90;;;;;;5023710;28;20125;-85
2021/04/15 08:11:37;;;;;;;2.10;1.13;;;6.50;99.90;;;;;;5028446;28;20039;-85
2021/04/15 08:14:31;;;;;;;2.78;1.23;;;6.70;99.90;;;;;;5029954;28;20370;-85
2021/04/15 08:17:21;;;;;;;3.10;1.20;;;6.90;99.90;;;;;;5033591;28;20030;-84
2021/04/15 08:20:29;;;;;;;3.67;1.58;;;7.10;99.90;;;;;;5032293;28;20018;-85
2021/04/15 08:22:55;;;;;;;2.10;1.00;;;7.20;99.90;;;;;;4980682;28;20041;-85
2021/04/15 08:25:30;;;;;;;1.75;1.20;;;7.30;99.90;;;;;;5014479;28;20351;-85
2021/04/15 08:28:08;;;;;;;4.80;1.33;;;7.30;99.90;;;;;;4977121;28;20034;-85
2021/04/15 08:31:00;;;;;;;4.53;1.10;;;7.30;99.90;;;;;;4995527;28;20025;-84
2021/04/15 08:33:37;;;;;;;3.28;1.23;;;7.30;99.90;;;;;;5021423;28;20029;-85
2021/04/15 08:36:12;;;;;;;1.63;0.70;;;7.30;99.90;;;;;;4996980;28;20025;-85
2021/04/15 08:38:51;;;;;;;1.50;0.85;;;7.40;99.90;;;;;;5024487;28;20033;-83
2021/04/15 08:42:01;;;;;;;1.25;0.70;;;7.60;99.90;;;;;;5015974;28;20029;-85
2021/04/15 08:44:52;;;;;;;3.85;1.10;;;7.70;99.90;;;;;;4995797;28;20121;-84
2021/04/15 08:47:41;;;;;;;2.78;1.00;;;7.50;99.90;;;;;;4995459;28;20041;-84
2021/04/15 08:50:47;;;;;;;2.63;0.93;;;7.50;99.90;;;;;;5005465;28;20100;-85
2021/04/15 08:53:33;;;;;;;3.22;1.20;;;7.40;99.90;;;;;;4979280;28;20026;-85
2021/04/15 08:56:26;;;;;;;2.40;0.80;;;7.30;99.90;;;;;;4995353;28;20026;-84
2021/04/15 08:59:16;;;;;;;2.25;1.10;;;7.30;99.90;;;;;;5000238;28;20038;-84
2021/04/15 09:02:01;;;;;;;4.38;1.33;;;7.40;99.90;;;;;;5018134;28;20493;-83
2021/04/15 09:05:20;;;;;;;2.63;1.20;;;7.60;99.90;;;;;;5017804;28;20033;-84
2021/04/15 09:08:10;;;;;;;2.25;1.00;;;7.70;99.90;;;;;;4969953;28;20034;-83
2021/04/15 09:10:52;;;;;;;2.35;1.10;;;7.70;99.90;;;;;;5009504;28;20029;-84
2021/04/15 09:13:36;;;;;;;3.03;1.13;;;7.70;99.90;;;;;;5005862;28;20104;-85
2021/04/15 09:16:18;;;;;;;2.05;0.90;;;7.50;99.90;;;;;;4989775;28;20082;-85
2021/04/15 09:19:01;;;;;;;2.30;0.80;;;7.40;99.90;;;;;;5037054;28;20029;-86
2021/04/15 09:21:46;;;;;;;2.40;0.80;;;7.30;99.90;;;;;;5035865;28;20080;-83
2021/04/15 09:24:42;;;;;;;2.45;0.90;;;7.40;99.90;;;;;;5003524;28;20022;-85
2021/04/15 09:27:46;;;;;;;1.33;0.70;;;7.50;99.90;;;;;;5013515;28;20036;-85
2021/04/15 09:30:21;;;;;;;2.57;0.90;;;7.60;99.90;;;;;;4996283;28;20025;-85
2021/04/15 09:32:58;;;;;;;1.15;0.70;;;7.70;99.90;;;;;;4998834;28;20032;-85
2021/04/15 09:36:06;;;;;;;1.35;0.68;;;7.90;99.90;;;;;;5007076;28;20026;-84
2021/04/15 09:38:49;;;;;;;1.92;0.80;;;8.20;99.90;;;;;;5019468;28;20033;-86
2021/04/15 09:41:33;;;;;;;2.03;1.13;;;8.40;99.90;;;;;;5006954;28;20108;-85
2021/04/15 09:44:15;;;;;;;1.75;0.90;;;8.60;99.90;;;;;;4980084;28;20398;-86
2021/04/15 09:47:19;;;;;;;1.58;1.02;;;9.10;99.80;;;;;;5004216;28;20045;-84
2021/04/15 09:50:07;;;;;;;2.25;1.08;;;10.10;98.80;;;;;;5019910;28;20049;-85
2021/04/15 09:53:10;;;;;;;2.03;0.75;;;11.10;98.50;;;;;;5007681;28;20017;-85
2021/04/15 09:55:54;;;;;;;2.78;1.00;;;12.50;97.50;;;;;;5019803;28;20029;-84
2021/04/15 09:58:33;;;;;;;3.40;0.73;;;13.80;95.90;;;;;;5028484;28;20417;-85
2021/04/15 10:01:06;;;;;;;2.85;0.90;;;13.60;93.70;;;;;;5012791;28;20069;-84
2021/04/15 10:04:06;;;;;;;;;;;12.40;93.10;;;;;;4999354;28;20108;-84
2021/04/15 10:07:01;;;;;;;4.63;1.40;;;11.30;93.10;;;;;;4975444;28;19913;-85
2021/04/15 10:09:49;;;;;;;2.10;1.15;;;10.30;94.80;;;;;;4901787;29;20048;-84
2021/04/15 10:12:56;;;;;;;4.53;1.23;;;9.60;95.30;;;;;;4901581;29;20559;-83
2021/04/15 10:15:42;;;;;;;9.27;1.70;;;9.50;96.00;;;;;;4997719;28;20030;-83
2021/04/15 10:18:36;;;;;;;3.72;1.30;;;9.50;96.10;;;;;;5013940;28;20041;-85
2021/04/15 10:21:41;;;;;;;4.75;1.20;;;10.50;95.70;;;;;;5022696;28;20057;-85
2021/04/15 10:24:45;;;;;;;3.25;1.00;;;10.70;95.00;;;;;;5033985;28;20025;-85
2021/04/15 10:27:32;;;;;;;2.38;1.02;;;11.90;93.80;;;;;;5028011;28;20034;-86
2021/04/15 10:30:35;;;;;;;2.42;1.00;;;12.20;93.20;;;;;;5033406;28;20026;-86
2021/04/15 10:33:32;;;;;;;1.70;1.00;;;13.30;92.80;;;;;;5027042;28;20116;-86
2021/04/15 10:36:50;;;;;;;2.08;0.95;;;13.60;91.80;;;;;;5017395;28;20503;-86
2021/04/15 10:39:42;;;;;;;1.90;0.95;;;13.60;91.30;;;;;;4979727;28;20037;-85
2021/04/15 10:42:41;;;;;;;1.13;0.70;;;13.10;91.50;;;;;;5030324;28;20040;-85
2021/04/15 10:45:43;;;;;;;2.42;0.73;;;12.50;92.10;;;;;;5038963;28;20052;-85
2021/04/15 10:48:37;;;;;;;1.65;0.68;;;12.00;91.50;;;;;;5032946;28;20030;-86
2021/04/15 10:51:34;;;;;;;1.70;0.70;;;11.60;92.40;;;;;;5033652;28;20044;-84
2021/04/15 10:54:19;;;;;;;1.92;0.90;;;11.60;92.80;;;;;;5014522;28;20030;-85
2021/04/15 10:56:49;;;;;;;2.28;1.00;;;11.50;92.70;;;;;;5032956;28;20424;-85
2021/04/15 10:59:36;;;;;;;2.67;0.85;;;12.10;92.90;;;;;;5036491;28;20450;-85
2021/04/15 11:02:20;;;;;;;2.08;0.80;;;12.60;91.70;;;;;;5041214;28;20061;-85
2021/04/15 11:04:48;;;;;;;1.33;0.63;;;12.80;91.80;;;;;;5034986;28;20037;-86
2021/04/15 11:07:27;;;;;;;2.65;1.10;;;12.80;91.60;;;;;;5033321;28;20069;-85
2021/04/15 11:09:57;;;;;;;2.40;1.00;;;13.40;91.90;;;;;;5028491;28;20432;-85
2021/04/15 11:12:33;;;;;;;3.38;1.10;;;14.40;89.10;;;;;;5026744;28;20716;-86
2021/04/15 11:15:01;;;;;;;1.65;0.75;;;15.10;87.00;;;;;;5032850;28;20052;-86
2021/04/15 11:17:43;;;;;;;3.33;1.45;;;15.10;86.80;;;;;;5031290;28;20462;-85
2021/04/15 11:20:25;;;;;;;1.38;0.88;;;14.70;86.50;;;;;;5032765;28;20018;-86
2021/04/15 11:23:17;;;;;;;1.17;0.80;;;14.20;87.60;;;;;;5033728;28;20041;-87
2021/04/15 11:25:50;;;;;;;1.80;0.90;;;13.80;88.50;;;;;;5033362;28;20030;-86
2021/04/15 11:28:31;;;;;;;1.55;0.90;;;13.80;88.80;;;;;;5033739;28;20037;-85
2021/04/15 11:31:09;;;;;;;2.33;1.23;;;14.60;88.10;;;;;;5023953;28;20021;-87
2021/04/15 11:33:46;;;;;;;2.20;1.17;;;16.40;86.20;;;;;;5049301;28;20021;-85
2021/04/15 11:36:30;;;;;;;3.10;0.98;;;17.60;82.90;;;;;;5052017;28;20025;-88
2021/04/15 11:39:05;;;;;;;2.00;1.10;;;18.90;75.90;;;;;;5040349;28;20018;-88
2021/04/15 11:41:49;;;;;;;1.25;0.80;;;19.40;72.40;;;;;;5038425;28;20026;-89
2021/04/15 11:45:14;;;;;;;1.98;0.90;;;19.90;72.50;;;;;;5043074;28;20059;-87
2021/04/15 11:47:44;;;;;;;1.17;0.80;;;20.50;71.40;;;;;;5007877;28;20147;-87
2021/04/15 11:50:22;;;;;;;1.55;0.70;;;21.10;68.70;;;;;;5013556;28;20018;-87
2021/04/15 11:52:53;;;;;;;2.30;0.90;;;21.30;66.90;;;;;;5036659;28;20120;-87
2021/04/15 11:55:31;;;;;;;1.50;1.00;;;21.20;66.00;;;;;;5042190;28;20041;-87
2021/04/15 11:58:05;;;;;;;8.05;1.98;;;21.40;64.40;;;;;;5033173;28;20064;-87
2021/04/15 12:00:35;;;;;;;3.50;1.27;;;21.30;62.60;;;;;;5032082;28;20485;-86
2021/04/15 12:03:16;;;;;;;2.45;0.93;;;20.30;61.20;;;;;;5032686;28;20021;-84
2021/04/15 12:05:45;;;;;;;2.97;0.70;;;18.90;63.00;;;;;;5032334;28;20030;-84
2021/04/15 12:08:22;;;;;;;1.83;0.93;;;17.70;64.40;;;;;;5030904;28;20026;-86
2021/04/15 12:11:01;;;;;;;1.55;0.80;;;17.00;66.00;;;;;;5031475;28;20021;-86
2021/04/15 12:13:46;;;;;;;2.85;1.02;;;17.60;66.40;;;;;;5032836;28;20017;-86
2021/04/15 12:17:01;;;;;;;2.25;0.98;;;18.80;62.80;;;;;;5034008;28;20060;-85
2021/04/15 12:19:32;;;;;;;1.25;0.80;;;19.20;59.80;;;;;;5016693;28;20509;-86
2021/04/15 12:22:20;;;;;;;3.15;1.20;;;19.00;61.10;;;;;;5029856;28;20156;-85
2021/04/15 12:24:57;;;;;;;2.72;1.00;;;19.10;61.10;;;;;;5027264;28;20088;-85
2021/04/15 12:27:36;;;;;;;3.10;1.13;;;19.40;59.20;;;;;;5029014;28;20036;-86
2021/04/15 12:30:16;;;;;;;2.17;1.00;;;18.80;57.30;;;;;;5027628;28;20436;-86
2021/04/15 12:33:15;;;;;;;2.20;1.00;;;17.80;59.10;;;;;;5027541;28;20026;-86
2021/04/15 12:35:58;;;;;;;1.90;1.00;;;16.90;60.40;;;;;;5019548;28;20042;-85
2021/04/15 12:38:29;;;;;;;2.50;1.20;;;16.30;60.90;;;;;;5026526;28;20132;-84
2021/04/15 12:40:59;;;;;;;1.80;0.80;;;15.80;60.90;;;;;;5027093;28;20025;-85
2021/04/15 12:43:37;;;;;;;2.13;0.93;;;15.30;61.60;;;;;;5027426;28;20029;-85
2021/04/15 12:46:20;;;;;;;2.42;0.90;;;15.60;61.50;;;;;;4996631;28;20123;-85
2021/04/15 12:49:03;;;;;;;1.63;0.82;;;15.40;59.90;;;;;;5010822;28;20064;-85
2021/04/15 12:51:43;;;;;;;1.73;0.80;;;15.00;60.80;;;;;;5011708;28;20859;-86
2021/04/15 12:54:22;;;;;;;1.92;0.80;;;14.60;61.10;;;;;;5011465;28;20045;-86
2021/04/15 12:56:54;;;;;;;1.40;0.90;;;15.40;62.00;;;;;;4992005;28;20038;-85
2021/04/15 12:59:47;;;;;;;3.40;1.45;;;16.90;61.10;;;;;;5009765;28;20042;-85
2021/04/15 13:02:31;;;;;;;2.38;1.20;;;18.50;58.20;;;;;;5022898;28;20179;-86
2021/04/15 13:05:13;;;;;;;1.40;0.82;;;19.60;57.00;;;;;;5014283;28;20116;-87
2021/04/15 13:07:42;;;;;;;1.08;0.73;;;20.20;55.20;;;;;;5016618;28;20076;-87
2021/04/15 13:10:22;;;;;;;2.28;1.10;;;19.60;55.20;;;;;;5020975;28;20029;-86
2021/04/15 13:13:00;;;;;;;1.83;0.82;;;18.80;55.00;;;;;;5022180;28;20042;-85
2021/04/15 13:15:29;;;;;;;3.15;1.08;;;17.80;56.10;;;;;;4999576;28;20045;-86
2021/04/15 13:18:02;;;;;;;2.17;1.02;;;16.90;56.90;;;;;;5021504;28;20041;-86
2021/04/15 13:20:28;;;;;;;1.33;0.80;;;16.10;57.70;;;;;;5026108;28;20148;-86
2021/04/15 13:23:13;;;;;;;1.42;0.80;;;15.40;59.10;;;;;;5032271;28;20064;-85
2021/04/15 13:25:55;;;;;;;1.40;0.93;;;14.90;59.60;;;;;;5028770;28;20125;-85
2021/04/15 13:28:45;;;;;;;4.03;1.50;;;14.50;60.20;;;;;;5015312;28;20046;-84
2021/04/15 13:31:43;;;;;;;3.53;1.30;;;14.10;61.00;;;;;;5024537;28;20484;-86
2021/04/15 13:34:23;;;;;;;2.42;1.10;;;13.70;60.90;;;;;;5014365;28;20060;-84
2021/04/15 13:36:51;;;;;;;2.55;1.48;;;13.70;61.50;;;;;;5019810;28;20041;-83
2021/04/15 13:39:27;;;;;;;2.42;1.10;;;13.70;61.70;;;;;;5019401;28;20396;-84
2021/04/15 13:41:52;;;;;;;2.80;1.00;;;14.20;61.40;;;;;;5028933;28;20064;-85
2021/04/15 13:45:00;;;;;;;1.73;1.05;;;14.80;60.20;;;;;;5031515;28;20505;-85
2021/04/15 13:47:44;;;;;;;2.55;0.90;;;14.80;59.60;;;;;;5023120;28;20116;-84
2021/04/15 13:50:12;;;;;;;2.22;1.10;;;15.10;60.40;;;;;;5024384;28;20557;-85
2021/04/15 13:52:46;;;;;;;2.53;1.10;;;15.50;60.30;;;;;;5028499;28;20116;-85
2021/04/15 13:55:55;;;;;;;2.30;0.98;;;15.70;59.30;;;;;;5014661;28;20042;-86
2021/04/15 13:58:38;;;;;;;1.90;0.90;;;15.70;59.10;;;;;;5022771;28;20132;-86
2021/04/15 14:01:36;;;;;;;1.85;1.00;;;15.50;59.90;;;;;;5016088;28;20026;-85
2021/04/15 14:04:03;;;;;;;2.08;0.80;;;15.20;59.70;;;;;;5014792;28;20041;-86
2021/04/15 14:06:30;;;;;;;2.22;1.05;;;14.90;60.20;;;;;;5017069;28;20485;-85